Time;durP1;ratioP1;P1;durP2;ratioP2;P2;SDS_P1;SDS_P2;PMS_P1;PMS_P2;Temp;Humidity;BMP_temperature;BMP_pressure;BME280_temperature;BME280_humidity;BME280_pressure;Samples;Min_cycle;Max_cycle;Signal;HPM_P1;HPM_P2
2022/04/07 00:01:03;;;;;;;;;;;;;;;;;;6109775;23;19917;-91
2022/04/07 00:03:30;;;;;;;;;;;;;;;;;;6061947;23;19918;-91
2022/04/07 00:05:57;;;;;;;;;;;;;;;;;;6061486;23;20472;-91
2022/04/07 00:08:24;;;;;;;;;;;;;;;;;;6062597;23;20259;-91
2022/04/07 00:10:52;;;;;;;;;;;;;;;;;;6146132;23;19920;-91
2022/04/07 00:13:22;;;;;;;;;;;;;;;;;;6176884;23;19950;-91
2022/04/07 00:15:47;;;;;;;;;;;;;;;;;;6151337;23;20257;-90
2022/04/07 00:18:15;;;;;;;;;;;;;;;;;;6152190;23;19920;-91
2022/04/07 00:20:43;;;;;;;;;;;;;;;;;;6128875;23;19987;-93
2022/04/07 00:23:12;;;;;;;;;;;;;;;;;;6152824;23;19916;-92
2022/04/07 00:25:40;;;;;;;;;;;;;;;;;;6157875;23;19920;-91
2022/04/07 00:28:06;;;;;;;;;;;;;;;;;;6161682;23;19967;-92
2022/04/07 00:30:36;;;;;;;;;;;;;;;;;;6163840;23;19936;-92
2022/04/07 00:33:04;;;;;;;;;;;;;;;;;;6163594;23;20036;-93
2022/04/07 00:35:34;;;;;;;;;;;;;;;;;;6162084;23;19931;-91
2022/04/07 00:38:10;;;;;;;;;;;;;;;;;;6160000;23;20396;-91
2022/04/07 00:40:36;;;;;;;;;;;;;;;;;;6174423;23;19923;-91
2022/04/07 00:43:02;;;;;;;;;;;;;;;;;;6185166;23;19919;-91
2022/04/07 00:45:35;;;;;;;;;;;;;;;;;;6184499;23;19938;-92
2022/04/07 00:48:03;;;;;;;;;;;;;;;;;;6183587;23;19919;-91
2022/04/07 00:50:30;;;;;;;;;;;;;;;;;;6180878;23;19955;-91
2022/04/07 00:52:58;;;;;;;;;;;;;;;;;;6182987;23;19919;-91
2022/04/07 00:55:45;;;;;;;;;;;;;;;;;;6152422;23;19920;-91
2022/04/07 00:58:12;;;;;;;;;;;;;;;;;;6152559;23;20115;-91
2022/04/07 01:00:42;;;;;;;;;;;;;;;;;;6176847;23;20089;-90
2022/04/07 01:03:10;;;;;;;;;;;;;;;;;;6127684;23;19920;-91
2022/04/07 01:05:37;;;;;;;;;;;;;;;;;;6152038;23;19921;-91
2022/04/07 01:08:19;;;;;;;;;;;;;;;;;;6177768;23;19928;-91
2022/04/07 01:10:47;;;;;;;;;;;;;;;;;;6177395;23;19916;-92
2022/04/07 01:13:13;;;;;;;;;;;;;;;;;;6127685;23;19922;-90
2022/04/07 01:15:40;;;;;;;;;;;;;;;;;;6150745;23;19920;-91
2022/04/07 01:18:07;;;;;;;;;;;;;;;;;;6152065;23;19920;-91
2022/04/07 01:20:34;;;;;;;;;;;;;;;;;;6127173;23;19924;-91
2022/04/07 01:23:01;;;;;;;;;;;;;;;;;;6152407;23;19995;-91
2022/04/07 01:25:28;;;;;;;;;;;;;;;;;;6126272;23;19927;-90
2022/04/07 01:27:56;;;;;;;;;;;;;;;;;;6126317;23;20400;-91
2022/04/07 01:30:23;;;;;;;;;;;;;;;;;;6125993;23;19987;-91
2022/04/07 01:32:53;;;;;;;;;;;;;;;;;;6127040;23;20189;-91
2022/04/07 01:35:23;;;;;;;;;;;;;;;;;;6150796;23;19920;-91
2022/04/07 01:37:49;;;;;;;;;;;;;;;;;;6126486;23;19984;-91
2022/04/07 01:40:22;;;;;;;;;;;;;;;;;;6128729;23;19932;-91
2022/04/07 01:42:50;;;;;;;;;;;;;;;;;;6152734;23;19917;-91
2022/04/07 01:45:16;;;;;;;;;;;;;;;;;;6152685;23;19916;-92
2022/04/07 01:47:44;;;;;;;;;;;;;;;;;;6128242;23;19995;-91
2022/04/07 01:50:10;;;;;;;;;;;;;;;;;;6176551;23;19928;-91
2022/04/07 01:52:36;;;;;;;;;;;;;;;;;;6152036;23;20006;-91
2022/04/07 01:55:03;;;;;;;;;;;;;;;;;;6128567;23;19916;-91
2022/04/07 01:57:30;;;;;;;;;;;;;;;;;;6127561;23;19924;-91
2022/04/07 01:59:57;;;;;;;;;;;;;;;;;;6151845;23;19924;-91
2022/04/07 02:02:25;;;;;;;;;;;;;;;;;;6150831;23;19920;-91
2022/04/07 02:04:52;;;;;;;;;;;;;;;;;;6151410;23;20482;-91
2022/04/07 02:07:18;;;;;;;;;;;;;;;;;;6151462;23;20389;-91
2022/04/07 02:09:45;;;;;;;;;;;;;;;;;;6127428;23;19958;-91
2022/04/07 02:12:11;;;;;;;;;;;;;;;;;;6152128;23;19943;-91
2022/04/07 02:14:39;;;;;;;;;;;;;;;;;;6152212;23;19940;-91
2022/04/07 02:17:06;;;;;;;;;;;;;;;;;;6127162;23;19939;-91
2022/04/07 02:19:32;;;;;;;;;;;;;;;;;;6177397;23;19924;-91
2022/04/07 02:21:59;;;;;;;;;;;;;;;;;;6127171;23;19927;-91
2022/04/07 02:24:27;;;;;;;;;;;;;;;;;;6152499;23;19923;-91
2022/04/07 02:26:54;;;;;;;;;;;;;;;;;;6129652;23;19960;-92
2022/04/07 02:29:21;;;;;;;;;;;;;;;;;;6127194;23;19931;-91
2022/04/07 02:31:49;;;;;;;;;;;;;;;;;;6128196;23;19951;-92
2022/04/07 02:34:16;;;;;;;;;;;;;;;;;;6151932;23;19926;-92
2022/04/07 02:36:43;;;;;;;;;;;;;;;;;;6152245;23;19958;-91
2022/04/07 02:39:10;;;;;;;;;;;;;;;;;;6116080;23;19928;-92
2022/04/07 02:41:38;;;;;;;;;;;;;;;;;;6121073;23;19917;-92
2022/04/07 02:44:04;;;;;;;;;;;;;;;;;;6123218;23;19987;-91
2022/04/07 02:46:31;;;;;;;;;;;;;;;;;;6121468;23;20329;-92
2022/04/07 02:48:58;;;;;;;;;;;;;;;;;;6149539;23;19916;-91
2022/04/07 02:51:26;;;;;;;;;;;;;;;;;;6121549;23;20250;-91
2022/04/07 02:53:57;;;;;;;;;;;;;;;;;;6121945;23;19971;-92
2022/04/07 02:56:41;;;;;;;;;;;;;;;;;;6061856;23;20291;-91
2022/04/07 02:59:07;;;;;;;;;;;;;;;;;;6062537;23;19936;-91
2022/04/07 03:01:34;;;;;;;;;;;;;;;;;;6062938;23;19921;-92
2022/04/07 03:04:02;;;;;;;;;;;;;;;;;;6062356;23;19927;-91
2022/04/07 03:06:38;;;;;;;;;;;;;;;;;;6085441;23;19921;-91
2022/04/07 03:09:04;;;;;;;;;;;;;;;;;;6061279;23;19924;-91
2022/04/07 03:11:31;;;;;;;;;;;;;;;;;;6062764;23;19929;-91
2022/04/07 03:13:57;;;;;;;;;;;;;;;;;;6062666;23;19921;-91
2022/04/07 03:16:24;;;;;;;;;;;;;;;;;;6062459;23;19921;-91
2022/04/07 03:18:52;;;;;;;;;;;;;;;;;;6062749;23;19965;-91
2022/04/07 03:21:19;;;;;;;;;;;;;;;;;;6062861;23;19940;-92
2022/04/07 03:23:46;;;;;;;;;;;;;;;;;;6038443;23;19928;-91
2022/04/07 03:26:13;;;;;;;;;;;;;;;;;;6060714;23;20048;-92
2022/04/07 03:28:55;;;;;;;;;;;;;;;;;;6088529;23;20093;-90
2022/04/07 03:31:22;;;;;;;;;;;;;;;;;;6061914;23;19928;-91
2022/04/07 03:33:50;;;;;;;;;;;;;;;;;;6039279;23;19924;-91
2022/04/07 03:36:17;;;;;;;;;;;;;;;;;;6062401;23;20033;-91
2022/04/07 03:38:45;;;;;;;;;;;;;;;;;;6068574;23;19921;-90
2022/04/07 03:41:13;;;;;;;;;;;;;;;;;;6163662;23;20337;-90
2022/04/07 03:43:42;;;;;;;;;;;;;;;;;;6151203;23;19983;-90
2022/04/07 03:46:21;;;;;;;;;;;;;;;;;;6153248;23;19926;-89
2022/04/07 03:48:49;;;;;;;;;;;;;;;;;;6180750;23;19916;-91
2022/04/07 03:51:19;;;;;;;;;;;;;;;;;;6156281;23;19947;-90
2022/04/07 03:53:45;;;;;;;;;;;;;;;;;;6134877;23;19923;-91
2022/04/07 03:56:11;;;;;;;;;;;;;;;;;;6155217;23;19936;-90
2022/04/07 03:58:38;;;;;;;;;;;;;;;;;;6127215;23;20664;-90
2022/04/07 04:01:06;;;;;;;;;;;;;;;;;;6126861;23;20281;-90
2022/04/07 04:03:33;;;;;;;;;;;;;;;;;;6151945;23;19927;-91
2022/04/07 04:06:00;;;;;;;;;;;;;;;;;;6127762;23;20245;-90
2022/04/07 04:08:27;;;;;;;;;;;;;;;;;;6126011;23;20397;-90
2022/04/07 04:10:54;;;;;;;;;;;;;;;;;;6152164;23;19975;-90
2022/04/07 04:13:21;;;;;;;;;;;;;;;;;;6154016;23;19927;-91
2022/04/07 04:15:50;;;;;;;;;;;;;;;;;;6179817;23;19927;-90
2022/04/07 04:18:18;;;;;;;;;;;;;;;;;;6153410;23;20257;-90
2022/04/07 04:21:05;;;;;;;;;;;;;;;;;;6093261;23;20003;-90
2022/04/07 04:23:32;;;;;;;;;;;;;;;;;;6093420;23;20191;-91
2022/04/07 04:26:13;;;;;;;;;;;;;;;;;;6066366;23;19921;-90
2022/04/07 04:28:40;;;;;;;;;;;;;;;;;;6088703;23;20266;-89
2022/04/07 04:31:07;;;;;;;;;;;;;;;;;;6089146;23;20616;-91
2022/04/07 04:33:35;;;;;;;;;;;;;;;;;;6087542;23;19921;-91
2022/04/07 04:36:01;;;;;;;;;;;;;;;;;;6087750;23;20673;-90
2022/04/07 04:38:45;;;;;;;;;;;;;;;;;;6067143;23;19965;-90
2022/04/07 04:41:11;;;;;;;;;;;;;;;;;;6039839;23;20295;-91
2022/04/07 04:43:38;;;;;;;;;;;;;;;;;;6040158;23;19977;-90
2022/04/07 04:46:07;;;;;;;;;;;;;;;;;;6039804;23;19979;-91
2022/04/07 04:48:34;;;;;;;;;;;;;;;;;;6037558;23;19921;-90
2022/04/07 04:51:02;;;;;;;;;;;;;;;;;;6088329;23;20409;-91
2022/04/07 04:53:37;;;;;;;;;;;;;;;;;;6084541;23;20024;-90
2022/04/07 04:56:20;;;;;;;;;;;;;;;;;;6089384;23;19921;-91
2022/04/07 04:58:49;;;;;;;;;;;;;;;;;;6115819;23;19917;-92
2022/04/07 05:01:23;;;;;;;;;;;;;;;;;;6091146;23;19925;-93
2022/04/07 05:03:59;;;;;;;;;;;;;;;;;;6072191;23;19928;-92
2022/04/07 05:06:26;;;;;;;;;;;;;;;;;;6094629;23;19921;-92
2022/04/07 05:08:53;;;;;;;;;;;;;;;;;;6096006;23;19952;-93
2022/04/07 05:11:21;;;;;;;;;;;;;;;;;;6126239;23;19927;-92
2022/04/07 05:13:47;;;;;;;;;;;;;;;;;;6156492;23;19920;-91
2022/04/07 05:16:15;;;;;;;;;;;;;;;;;;6155754;23;19927;-91
2022/04/07 05:19:02;;;;;;;;;;;;;;;;;;6093529;23;19967;-90
2022/04/07 05:21:29;;;;;;;;;;;;;;;;;;6094505;23;19925;-91
2022/04/07 05:23:56;;;;;;;;;;;;;;;;;;6068139;23;19928;-91
2022/04/07 05:26:24;;;;;;;;;;;;;;;;;;6116304;23;19917;-91
2022/04/07 05:28:55;;;;;;;;;;;;;;;;;;6093680;23;19924;-91
2022/04/07 05:31:22;;;;;;;;;;;;;;;;;;6118379;23;19917;-90
2022/04/07 05:33:49;;;;;;;;;;;;;;;;;;6071544;23;19917;-91
2022/04/07 05:36:17;;;;;;;;;;;;;;;;;;6070523;23;20255;-90
2022/04/07 05:38:43;;;;;;;;;;;;;;;;;;6070827;23;19921;-91
2022/04/07 05:41:10;;;;;;;;;;;;;;;;;;6093125;23;19995;-91
2022/04/07 05:43:38;;;;;;;;;;;;;;;;;;6071020;23;20300;-92
2022/04/07 05:46:05;;;;;;;;;;;;;;;;;;6070521;23;19921;-91
2022/04/07 05:48:32;;;;;;;;;;;;;;;;;;6093953;23;19921;-92
2022/04/07 05:51:12;;;;;;;;;;;;;;;;;;6071426;23;19921;-92
2022/04/07 05:53:42;;;;;;;;;;;;;;;;;;6092774;23;19921;-92
2022/04/07 05:56:09;;;;;;;;;;;;;;;;;;6069319;23;19931;-92
2022/04/07 05:58:39;;;;;;;;;;;;;;;;;;6093851;23;19921;-92
2022/04/07 06:01:06;;;;;;;;;;;;;;;;;;6069989;23;20099;-91
2022/04/07 06:03:44;;;;;;;;;;;;;;;;;;;;;
2022/04/07 06:06:23;;;;;;;;;;;;;;;;;;6092873;23;19921;-92
2022/04/07 06:08:50;;;;;;;;;;;;;;;;;;6076522;23;20233;-91
2022/04/07 06:11:17;;;;;;;;;;;;;;;;;;6095061;23;19924;-91
2022/04/07 06:13:45;;;;;;;;;;;;;;;;;;6099505;23;20246;-91
2022/04/07 06:16:14;;;;;;;;;;;;;;;;;;6124083;23;19951;-91
2022/04/07 06:18:41;;;;;;;;;;;;;;;;;;6124162;23;19924;-91
2022/04/07 06:21:08;;;;;;;;;;;;;;;;;;6098860;23;19976;-92
2022/04/07 06:23:35;;;;;;;;;;;;;;;;;;6100998;23;19916;-91
2022/04/07 06:26:03;;;;;;;;;;;;;;;;;;6101332;23;19916;-91
2022/04/07 06:28:30;;;;;;;;;;;;;;;;;;6125670;23;19917;-91
2022/04/07 06:31:03;;;;;;;;;;;;;;;;;;6150943;23;19924;-91
2022/04/07 06:33:31;;;;;;;;;;;;;;;;;;6127200;23;20680;-91
2022/04/07 06:35:59;;;;;;;;;;;;;;;;;;6127056;23;19959;-90
2022/04/07 06:38:25;;;;;;;;;;;;;;;;;;6101695;23;19992;-90
2022/04/07 06:40:52;;;;;;;;;;;;;;;;;;6158091;23;19966;-91
2022/04/07 06:43:21;;;;;;;;;;;;;;;;;;6186302;23;19923;-90
2022/04/07 06:45:49;;;;;;;;;;;;;;;;;;6186109;23;19920;-91
2022/04/07 06:48:16;;;;;;;;;;;;;;;;;;6185189;23;19970;-90
2022/04/07 06:50:44;;;;;;;;;;;;;;;;;;6186118;23;19915;-90
2022/04/07 06:53:12;;;;;;;;;;;;;;;;;;6185165;23;19920;-90
2022/04/07 06:55:39;;;;;;;;;;;;;;;;;;6185533;23;20347;-90
2022/04/07 06:58:06;;;;;;;;;;;;;;;;;;6185414;23;20230;-91
2022/04/07 07:00:43;;;;;;;;;;;;;;;;;;6212026;23;20511;-91
2022/04/07 07:03:11;;;;;;;;;;;;;;;;;;6185742;23;19924;-91
2022/04/07 07:05:38;;;;;;;;;;;;;;;;;;6188204;23;19999;-90
2022/04/07 07:08:05;;;;;;;;;;;;;;;;;;6193369;23;20249;-91
2022/04/07 07:10:32;;;;;;;;;;;;;;;;;;6218137;23;19920;-90
2022/04/07 07:13:02;;;;;;;;;;;;;;;;;;6192320;23;19916;-89
2022/04/07 07:15:29;;;;;;;;;;;;;;;;;;6188981;23;19920;-89
2022/04/07 07:17:57;;;;;;;;;;;;;;;;;;6189666;23;19923;-90
2022/04/07 07:20:24;;;;;;;;;;;;;;;;;;6185838;23;19920;-90
2022/04/07 07:22:51;;;;;;;;;;;;;;;;;;6184739;23;19920;-90
2022/04/07 07:25:18;;;;;;;;;;;;;;;;;;6185882;23;20348;-90
2022/04/07 07:27:45;;;;;;;;;;;;;;;;;;6185514;23;19920;-91
2022/04/07 07:30:12;;;;;;;;;;;;;;;;;;6185872;23;19916;-91
2022/04/07 07:32:40;;;;;;;;;;;;;;;;;;6186192;23;19923;-91
2022/04/07 07:35:07;;;;;;;;;;;;;;;;;;6186214;23;19943;-91
2022/04/07 07:37:34;;;;;;;;;;;;;;;;;;6185357;23;20263;-90
2022/04/07 07:40:01;;;;;;;;;;;;;;;;;;6180172;23;19960;-91
2022/04/07 07:42:27;;;;;;;;;;;;;;;;;;6205387;23;19990;-90
2022/04/07 07:44:54;;;;;;;;;;;;;;;;;;6182637;23;20031;-90
2022/04/07 07:47:22;;;;;;;;;;;;;;;;;;6182716;23;19952;-90
2022/04/07 07:49:49;;;;;;;;;;;;;;;;;;6182369;23;20321;-90
2022/04/07 07:52:16;;;;;;;;;;;;;;;;;;6182451;23;19960;-89
2022/04/07 07:54:43;;;;;;;;;;;;;;;;;;6182426;23;20388;-90
2022/04/07 07:57:25;;;;;;;;;;;;;;;;;;6184248;23;19923;-90
2022/04/07 07:59:51;;;;;;;;;;;;;;;;;;6182552;23;19920;-90
2022/04/07 08:02:22;;;;;;;;;;;;;;;;;;6182306;23;19920;-91
2022/04/07 08:04:50;;;;;;;;;;;;;;;;;;6182337;23;20334;-91
2022/04/07 08:07:31;;;;;;;;;;;;;;;;;;6143029;23;19943;-91
2022/04/07 08:09:58;;;;;;;;;;;;;;;;;;6097831;23;20354;-92
2022/04/07 08:12:25;;;;;;;;;;;;;;;;;;6096123;23;19921;-91
2022/04/07 08:14:51;;;;;;;;;;;;;;;;;;6097244;23;19921;-90
2022/04/07 08:17:20;;;;;;;;;;;;;;;;;;6119004;23;19960;-90
2022/04/07 08:19:47;;;;;;;;;;;;;;;;;;6096887;23;19921;-91
2022/04/07 08:22:14;;;;;;;;;;;;;;;;;;6096141;23;19920;-91
2022/04/07 08:24:42;;;;;;;;;;;;;;;;;;6096467;23;19927;-90
2022/04/07 08:27:09;;;;;;;;;;;;;;;;;;6096051;23;20425;-90
2022/04/07 08:29:36;;;;;;;;;;;;;;;;;;6095624;23;19917;-91
2022/04/07 08:32:03;;;;;;;;;;;;;;;;;;6096271;23;19917;-92
2022/04/07 08:34:31;;;;;;;;;;;;;;;;;;6096403;23;19932;-90
2022/04/07 08:36:58;;;;;;;;;;;;;;;;;;6096137;23;19917;-93
2022/04/07 08:39:25;;;;;;;;;;;;;;;;;;6169250;23;19994;-92
2022/04/07 08:41:53;;;;;;;;;;;;;;;;;;6180917;23;19920;-91
2022/04/07 08:44:21;;;;;;;;;;;;;;;;;;6206215;23;20036;-91
2022/04/07 08:46:47;;;;;;;;;;;;;;;;;;6180756;23;19916;-91
2022/04/07 08:49:29;;;;;;;;;;;;;;;;;;6120814;23;19917;-91
2022/04/07 08:51:57;;;;;;;;;;;;;;;;;;6096454;23;19927;-91
2022/04/07 08:54:25;;;;;;;;;;;;;;;;;;6072098;23;19955;-91
2022/04/07 08:56:52;;;;;;;;;;;;;;;;;;6072153;23;19963;-91
2022/04/07 08:59:20;;;;;;;;;;;;;;;;;;6095924;23;20286;-91
2022/04/07 09:01:47;;;;;;;;;;;;;;;;;;6095651;23;19921;-92
2022/04/07 09:04:14;;;;;;;;;;;;;;;;;;6071057;23;20350;-92
2022/04/07 09:06:41;;;;;;;;;;;;;;;;;;6072095;23;20064;-92
2022/04/07 09:09:10;;;;;;;;;;;;;;;;;;6096647;23;19917;-92
2022/04/07 09:11:37;;;;;;;;;;;;;;;;;;6096069;23;19984;-92
2022/04/07 09:14:03;;;;;;;;;;;;;;;;;;6071949;23;20357;-91
2022/04/07 09:16:32;;;;;;;;;;;;;;;;;;6095365;23;19925;-92
2022/04/07 09:19:08;;;;;;;;;;;;;;;;;;6096276;23;19928;-92
2022/04/07 09:21:36;;;;;;;;;;;;;;;;;;6151213;23;20249;-93
2022/04/07 09:24:05;;;;;;;;;;;;;;;;;;6180562;23;19952;-92
2022/04/07 09:26:33;;;;;;;;;;;;;;;;;;6180308;23;19923;-93
2022/04/07 09:28:59;;;;;;;;;;;;;;;;;;6180911;23;19921;-91
2022/04/07 09:31:27;;;;;;;;;;;;;;;;;;6181258;23;19924;-92
2022/04/07 09:33:54;;;;;;;;;;;;;;;;;;6181159;23;19955;-91
2022/04/07 09:36:21;;;;;;;;;;;;;;;;;;6180672;23;20269;-92
2022/04/07 09:39:04;;;;;;;;;;;;;;;;;;6179252;23;19955;-91
2022/04/07 09:41:31;;;;;;;;;;;;;;;;;;6129138;23;20552;-91
2022/04/07 09:44:02;;;;;;;;;;;;;;;;;;6129122;23;19932;-92
2022/04/07 09:46:29;;;;;;;;;;;;;;;;;;6129500;23;19916;-91
2022/04/07 09:48:59;;;;;;;;;;;;;;;;;;6154613;23;19923;-93
2022/04/07 09:51:44;;;;;;;;;;;;;;;;;;6119266;23;19921;-91
2022/04/07 09:54:11;;;;;;;;;;;;;;;;;;6119967;23;19952;-92
2022/04/07 09:56:38;;;;;;;;;;;;;;;;;;6119734;23;20339;-91
2022/04/07 09:59:07;;;;;;;;;;;;;;;;;;6120250;23;19924;-92
2022/04/07 10:01:35;;;;;;;;;;;;;;;;;;6119516;23;19955;-92
2022/04/07 10:04:22;;;;;;;;;;;;;;;;;;6090430;23;19925;-90
2022/04/07 10:06:50;;;;;;;;;;;;;;;;;;6114021;23;19917;-91
2022/04/07 10:09:36;;;;;;;;;;;;;;;;;;6037589;23;20286;-91
2022/04/07 10:12:03;;;;;;;;;;;;;;;;;;6085312;23;19925;-91
2022/04/07 10:14:31;;;;;;;;;;;;;;;;;;6061886;23;19941;-91
2022/04/07 10:16:58;;;;;;;;;;;;;;;;;;6037154;23;19921;-92
2022/04/07 10:19:25;;;;;;;;;;;;;;;;;;6085283;23;19922;-91
2022/04/07 10:21:53;;;;;;;;;;;;;;;;;;6090566;23;19921;-92
2022/04/07 10:24:38;;;;;;;;;;;;;;;;;;6090478;23;19917;-92
2022/04/07 10:27:05;;;;;;;;;;;;;;;;;;6090505;23;19917;-92
2022/04/07 10:29:32;;;;;;;;;;;;;;;;;;6092281;23;19917;-91
2022/04/07 10:31:59;;;;;;;;;;;;;;;;;;6092003;23;20088;-91
2022/04/07 10:34:27;;;;;;;;;;;;;;;;;;6094651;23;19925;-91
2022/04/07 10:36:53;;;;;;;;;;;;;;;;;;6094483;23;19936;-92
2022/04/07 10:39:20;;;;;;;;;;;;;;;;;;6101427;23;20366;-91
2022/04/07 10:41:47;;;;;;;;;;;;;;;;;;6120638;23;19921;-92
2022/04/07 10:44:13;;;;;;;;;;;;;;;;;;6120158;23;19920;-92
2022/04/07 10:46:59;;;;;;;;;;;;;;;;;;6118991;23;20365;-90
2022/04/07 10:49:27;;;;;;;;;;;;;;;;;;6119145;23;19925;-91
2022/04/07 10:51:54;;;;;;;;;;;;;;;;;;6094469;23;19923;-92
2022/04/07 10:54:21;;;;;;;;;;;;;;;;;;6095003;23;19932;-91
2022/04/07 10:56:49;;;;;;;;;;;;;;;;;;6095622;23;20246;-91
2022/04/07 10:59:16;;;;;;;;;;;;;;;;;;6104296;23;19932;-91
2022/04/07 11:01:44;;;;;;;;;;;;;;;;;;6125913;23;19916;-92
2022/04/07 11:04:11;;;;;;;;;;;;;;;;;;6125333;23;19971;-92
2022/04/07 11:06:37;;;;;;;;;;;;;;;;;;6123887;23;19948;-92
2022/04/07 11:09:05;;;;;;;;;;;;;;;;;;6124574;23;19928;-91
2022/04/07 11:11:32;;;;;;;;;;;;;;;;;;6124561;23;20392;-91
2022/04/07 11:13:59;;;;;;;;;;;;;;;;;;6150492;23;20285;-91
2022/04/07 11:16:30;;;;;;;;;;;;;;;;;;6100179;23;19924;-91
2022/04/07 11:18:57;;;;;;;;;;;;;;;;;;6124987;23;19996;-92
2022/04/07 11:21:25;;;;;;;;;;;;;;;;;;6125197;23;19916;-93
2022/04/07 11:23:52;;;;;;;;;;;;;;;;;;6125400;23;19928;-91
2022/04/07 11:26:20;;;;;;;;;;;;;;;;;;6124505;23;19944;-92
2022/04/07 11:29:07;;;;;;;;;;;;;;;;;;6152289;23;20304;-92
2022/04/07 11:31:38;;;;;;;;;;;;;;;;;;6128128;23;19920;-91
2022/04/07 11:34:05;;;;;;;;;;;;;;;;;;6152951;23;19982;-91
2022/04/07 11:36:32;;;;;;;;;;;;;;;;;;6151589;23;19952;-91
2022/04/07 11:39:00;;;;;;;;;;;;;;;;;;6130229;23;19983;-90
2022/04/07 11:41:26;;;;;;;;;;;;;;;;;;6182463;23;19958;-91
2022/04/07 11:43:53;;;;;;;;;;;;;;;;;;6158537;23;19916;-91
2022/04/07 11:46:20;;;;;;;;;;;;;;;;;;6182004;23;19942;-92
2022/04/07 11:48:51;;;;;;;;;;;;;;;;;;6158828;23;19958;-92
2022/04/07 11:51:20;;;;;;;;;;;;;;;;;;6182526;23;20003;-93
2022/04/07 11:53:52;;;;;;;;;;;;;;;;;;6183587;23;19951;-92
2022/04/07 11:56:28;;;;;;;;;;;;;;;;;;6208749;23;19920;-93
2022/04/07 11:58:55;;;;;;;;;;;;;;;;;;6159126;23;19926;-91
2022/04/07 12:01:23;;;;;;;;;;;;;;;;;;6183297;23;19942;-92
2022/04/07 12:03:52;;;;;;;;;;;;;;;;;;6182919;23;20037;-93
2022/04/07 12:06:19;;;;;;;;;;;;;;;;;;6208414;23;19915;-93
2022/04/07 12:08:52;;;;;;;;;;;;;;;;;;6209208;23;19922;-92
2022/04/07 12:11:19;;;;;;;;;;;;;;;;;;6182697;23;19915;-92
2022/04/07 12:14:07;;;;;;;;;;;;;;;;;;6148946;23;19916;-93
2022/04/07 12:16:35;;;;;;;;;;;;;;;;;;6124008;23;19924;-92
2022/04/07 12:19:02;;;;;;;;;;;;;;;;;;6110060;23;20457;-92
2022/04/07 12:21:29;;;;;;;;;;;;;;;;;;6070375;23;19945;-91
2022/04/07 12:23:56;;;;;;;;;;;;;;;;;;6070702;23;19952;-91
2022/04/07 12:26:24;;;;;;;;;;;;;;;;;;6094293;23;20300;-91
2022/04/07 12:29:05;;;;;;;;;;;;;;;;;;6090458;23;19917;-93
2022/04/07 12:31:51;;;;;;;;;;;;;;;;;;6090803;23;19956;-91
2022/04/07 12:34:19;;;;;;;;;;;;;;;;;;6067298;23;19928;-93
2022/04/07 12:36:45;;;;;;;;;;;;;;;;;;6091134;23;19917;-91
2022/04/07 12:39:15;;;;;;;;;;;;;;;;;;6066776;23;20100;-92
2022/04/07 12:41:43;;;;;;;;;;;;;;;;;;6091110;23;19921;-92
2022/04/07 12:44:11;;;;;;;;;;;;;;;;;;6066931;23;20005;-92
2022/04/07 12:46:38;;;;;;;;;;;;;;;;;;6067637;23;19928;-91
2022/04/07 12:49:05;;;;;;;;;;;;;;;;;;6068077;23;19917;-92
2022/04/07 12:51:32;;;;;;;;;;;;;;;;;;6066812;23;20346;-92
2022/04/07 12:53:58;;;;;;;;;;;;;;;;;;6066178;23;19928;-92
2022/04/07 12:56:27;;;;;;;;;;;;;;;;;;6091033;23;19918;-91
2022/04/07 12:58:55;;;;;;;;;;;;;;;;;;6138664;23;19916;-92
2022/04/07 13:01:22;;;;;;;;;;;;;;;;;;6179963;23;19917;-93
2022/04/07 13:03:50;;;;;;;;;;;;;;;;;;6182225;23;20012;-92
2022/04/07 13:06:17;;;;;;;;;;;;;;;;;;6181309;23;20047;-92
2022/04/07 13:09:03;;;;;;;;;;;;;;;;;;6202530;23;20047;-91
2022/04/07 13:11:35;;;;;;;;;;;;;;;;;;6180889;23;19952;-91
2022/04/07 13:14:02;;;;;;;;;;;;;;;;;;6180602;23;20015;-92
2022/04/07 13:16:29;;;;;;;;;;;;;;;;;;6180667;23;19920;-92
2022/04/07 13:18:57;;;;;;;;;;;;;;;;;;6181456;23;19916;-92
2022/04/07 13:21:24;;;;;;;;;;;;;;;;;;6180935;23;19974;-93
2022/04/07 13:23:51;;;;;;;;;;;;;;;;;;6181590;23;20296;-92
2022/04/07 13:26:18;;;;;;;;;;;;;;;;;;6180615;23;19999;-92
2022/04/07 13:28:45;;;;;;;;;;;;;;;;;;6182189;23;20318;-92
2022/04/07 13:31:12;;;;;;;;;;;;;;;;;;6180813;23;20332;-93
2022/04/07 13:33:40;;;;;;;;;;;;;;;;;;6181521;23;20346;-92
2022/04/07 13:36:07;;;;;;;;;;;;;;;;;;6181321;23;19923;-93
2022/04/07 13:38:34;;;;;;;;;;;;;;;;;;6181736;23;19991;-92
2022/04/07 13:41:05;;;;;;;;;;;;;;;;;;6179805;23;19979;-91
2022/04/07 13:43:33;;;;;;;;;;;;;;;;;;6177639;23;20329;-90
2022/04/07 13:45:59;;;;;;;;;;;;;;;;;;6177325;23;19916;-93
2022/04/07 13:48:27;;;;;;;;;;;;;;;;;;6174349;23;19960;-93
2022/04/07 13:51:06;;;;;;;;;;;;;;;;;;6183826;23;19922;-93
2022/04/07 13:53:33;;;;;;;;;;;;;;;;;;6182949;23;20443;-92
2022/04/07 13:56:01;;;;;;;;;;;;;;;;;;6183763;23;20334;-92
2022/04/07 13:58:28;;;;;;;;;;;;;;;;;;6183791;23;20448;-90
2022/04/07 14:00:55;;;;;;;;;;;;;;;;;;6185439;23;19955;-92
2022/04/07 14:03:23;;;;;;;;;;;;;;;;;;6180617;23;20237;-93
2022/04/07 14:05:54;;;;;;;;;;;;;;;;;;6179585;23;19920;-92
2022/04/07 14:08:22;;;;;;;;;;;;;;;;;;6179431;23;20249;-91
2022/04/07 14:10:49;;;;;;;;;;;;;;;;;;6178631;23;19968;-91
2022/04/07 14:13:26;;;;;;;;;;;;;;;;;;6178049;23;19939;-91
2022/04/07 14:15:57;;;;;;;;;;;;;;;;;;6176821;23;19920;-91
2022/04/07 14:18:37;;;;;;;;;;;;;;;;;;6198681;23;19994;-91
2022/04/07 14:21:05;;;;;;;;;;;;;;;;;;6176432;23;19947;-91
2022/04/07 14:23:32;;;;;;;;;;;;;;;;;;6176215;23;20610;-92
2022/04/07 14:35:30;;;;;;;;;;;;;;;;;;6152279;23;20028;-91
2022/04/07 14:38:30;;;;;;;;;;;;;;;;;;6180932;23;20003;-91
2022/04/07 14:44:02;;;;;;;;;;;;;;;;;;6177503;23;19927;-90
2022/04/07 14:46:36;;;;;;;;;;;;;;;;;;6176813;23;19916;-91
2022/04/07 14:49:31;;;;;;;;;;;;;;;;;;;;;
2022/04/07 14:52:20;;;;;;;;;;;;;;;;;;6119924;23;20242;-91
2022/04/07 14:55:12;;;;;;;;;;;;;;;;;;6095912;23;19959;-91
2022/04/07 14:57:49;;;;;;;;;;;;;;;;;;6074515;23;20008;-91
2022/04/07 15:00:37;;;;;;;;;;;;;;;;;;6118677;23;20326;-91
2022/04/07 15:03:20;;;;;;;;;;;;;;;;;;6122664;23;20249;-92
2022/04/07 15:06:02;;;;;;;;;;;;;;;;;;6066564;23;19980;-92
2022/04/07 15:08:30;;;;;;;;;;;;;;;;;;6084722;23;19925;-91
2022/04/07 15:11:05;;;;;;;;;;;;;;;;;;6058336;23;20656;-91
2022/04/07 15:13:45;;;;;;;;;;;;;;;;;;6030897;23;20028;-91
2022/04/07 15:16:14;;;;;;;;;;;;;;;;;;6006823;23;19944;-91
2022/04/07 15:18:47;;;;;;;;;;;;;;;;;;6010739;23;19932;-92
2022/04/07 15:21:36;;;;;;;;;;;;;;;;;;;;;
2022/04/07 15:24:31;;;;;;;;;;;;;;;;;;6095908;23;20282;-92
2022/04/07 15:27:05;;;;;;;;;;;;;;;;;;6062325;23;20009;-92
2022/04/07 15:29:33;;;;;;;;;;;;;;;;;;6062223;23;19957;-91
2022/04/07 15:32:23;;;;;;;;;;;;;;;;;;6056122;23;20374;-93
2022/04/07 15:35:04;;;;;;;;;;;;;;;;;;6087514;23;19929;-92
2022/04/07 15:41:00;;;;;;;;;;;;;;;;;;5982243;23;20503;-91
2022/04/07 15:43:30;;;;;;;;;;;;;;;;;;5953217;23;20341;-92
2022/04/07 15:46:06;;;;;;;;;;;;;;;;;;5976862;23;19923;-92
2022/04/07 15:48:35;;;;;;;;;;;;;;;;;;5998130;23;19926;-93
2022/04/07 15:54:17;;;;;;;;;;;;;;;;;;5952590;24;20376;-93
2022/04/07 15:56:53;;;;;;;;;;;;;;;;;;5951070;24;19989;-93
2022/04/07 15:59:23;;;;;;;;;;;;;;;;;;5926578;24;19930;-92
2022/04/07 16:01:50;;;;;;;;;;;;;;;;;;6015364;23;19921;-92
2022/04/07 16:04:31;;;;;;;;;;;;;;;;;;6025873;23;19921;-93
2022/04/07 16:07:00;;;;;;;;;;;;;;;;;;6008752;23;19921;-92
2022/04/07 16:09:29;;;;;;;;;;;;;;;;;;5983533;23;19922;-91
2022/04/07 16:11:56;;;;;;;;;;;;;;;;;;6008654;23;19918;-93
2022/04/07 16:19:30;;;;;;;;;;;;;;;;;;6194328;23;19924;-85
2022/04/07 16:21:58;;;;;;;;;;;;;;;;;;6192094;23;20336;-86
2022/04/07 16:24:24;;;;;;;;;;;;;;;;;;6203802;23;19919;-86
2022/04/07 16:26:51;;;;;;;;;;;;;;;;;;6177303;23;20445;-85
2022/04/07 16:29:18;;;;;;;;;;;;;;;;;;6207526;23;19916;-85
2022/04/07 16:31:46;;;;;;;;;;;;;;;;;;6205519;23;19924;-86
2022/04/07 16:34:16;;;;;;;;;;;;;;;;;;6209331;23;19951;-87
2022/04/07 16:36:42;;;;;;;;;;;;;;;;;;6180074;23;20013;-87
2022/04/07 16:39:08;;;;;;;;;;;;;;;;;;6182200;23;20355;-86
2022/04/07 16:41:34;;;;;;;;;;;;;;;;;;6207954;23;19919;-86
2022/04/07 16:44:00;;;;;;;;;;;;;;;;;;6206214;23;20776;-86
2022/04/07 16:46:26;;;;;;;;;;;;;;;;;;6233904;23;19926;-85
2022/04/07 16:48:52;;;;;;;;;;;;;;;;;;6172797;23;19986;-86
2022/04/07 16:51:18;;;;;;;;;;;;;;;;;;6205743;23;20243;-85
2022/04/07 16:53:44;;;;;;;;;;;;;;;;;;6177475;23;19919;-86
2022/04/07 16:56:10;;;;;;;;;;;;;;;;;;6199898;23;20166;-85
2022/04/07 16:58:36;;;;;;;;;;;;;;;;;;6203465;23;19916;-85
2022/04/07 17:01:02;;;;;;;;;;;;;;;;;;6205402;23;20002;-85
2022/04/07 17:03:29;;;;;;;;;;;;;;;;;;6181877;23;20340;-85
2022/04/07 17:05:55;;;;;;;;;;;;;;;;;;6205696;23;20232;-85
2022/04/07 17:08:21;;;;;;;;;;;;;;;;;;6181512;23;19945;-85
2022/04/07 17:10:47;;;;;;;;;;;;;;;;;;6179987;23;20347;-85
2022/04/07 17:13:16;;;;;;;;;;;;;;;;;;6205800;23;19981;-85
2022/04/07 17:15:42;;;;;;;;;;;;;;;;;;6180517;23;20292;-85
2022/04/07 17:18:08;;;;;;;;;;;;;;;;;;6181880;23;19923;-85
2022/04/07 17:20:34;;;;;;;;;;;;;;;;;;6181452;23;19927;-85
2022/04/07 17:23:00;;;;;;;;;;;;;;;;;;6201440;23;20318;-85
2022/04/07 17:25:26;;;;;;;;;;;;;;;;;;6179604;23;19915;-84
2022/04/07 17:27:52;;;;;;;;;;;;;;;;;;6201475;23;19920;-84